WZZ14TX LPPR-EPWA
Flight info
| Callsign | WZZ14TX |
|---|---|
| Flight time | 3h 21m |
| Altitude | 34000 |
| Route | TURON P600 ASDEB DCT LOTEE DCT AZFIC DCT ERIGA DCT MOKOR UN741 NTS DCT GONEK DCT TABOV DCT TSU DCT OQQAL DCT RANUX DCT VALEK DCT LIPNI DCT LIMGO DCT MASEK DCT ROBEL DCT POZUM DCT OLUMA DCT OBOKU P150 BIMPA |
| Aircraft | A321/M-SDE1E2E3FGIJ1J4RWXY/LB1 |
Departure
| Time | 2026-05-01 11:17 |
|---|---|
| Airport | Francisco de Sá Carneiro Airport (LPPR) |
Arrival
| Time | 2026-05-01 14:38 |
|---|---|
| Airport | Warsaw Chopin Airport (EPWA) |
| Time | Latitude | Longitude | Altitude | Speed | Heading |
|---|---|---|---|---|---|
| 2026-05-01 11:00 | 41.23733 | -8.67265 | 245 ft | 0 kts | 69° |
| 2026-05-01 11:09 | 41.23729 | -8.67279 | 245 ft | 4 kts | 69° |
| 2026-05-01 11:10 | 41.23712 | -8.67339 | 243 ft | 4 kts | 80° |
| 2026-05-01 11:10 | 41.23713 | -8.67374 | 241 ft | 4 kts | 112° |
| 2026-05-01 11:10 | 41.23722 | -8.67396 | 240 ft | 0 kts | 127° |
| 2026-05-01 11:13 | 41.23711 | -8.67377 | 241 ft | 9 kts | 128° |
| 2026-05-01 11:13 | 41.23625 | -8.67330 | 242 ft | 15 kts | 178° |
| 2026-05-01 11:14 | 41.23524 | -8.67380 | 240 ft | 16 kts | 196° |
| 2026-05-01 11:14 | 41.23411 | -8.67367 | 239 ft | 16 kts | 169° |
| 2026-05-01 11:14 | 41.23334 | -8.67423 | 240 ft | 14 kts | 253° |
| 2026-05-01 11:14 | 41.23315 | -8.67539 | 236 ft | 12 kts | 258° |
| 2026-05-01 11:15 | 41.23308 | -8.67584 | 235 ft | 0 kts | 259° |
| 2026-05-01 11:15 | 41.23305 | -8.67606 | 236 ft | 8 kts | 259° |
| 2026-05-01 11:16 | 41.23291 | -8.67711 | 238 ft | 9 kts | 273° |
| 2026-05-01 11:16 | 41.23338 | -8.67742 | 238 ft | 9 kts | 348° |
| 2026-05-01 11:16 | 41.23486 | -8.67780 | 235 ft | 51 kts | 349° |
| 2026-05-01 11:16 | 41.24076 | -8.67935 | 216 ft | 119 kts | 349° |
| 2026-05-01 11:17 | 41.25087 | -8.68199 | 188 ft | 172 kts | 349° |
| 2026-05-01 11:17 | 41.26267 | -8.68498 | 790 ft | 170 kts | 347° |
| 2026-05-01 11:17 | 41.27409 | -8.68777 | 1606 ft | 163 kts | 348° |
| 2026-05-01 11:17 | 41.28538 | -8.69066 | 2029 ft | 174 kts | 347° |
| 2026-05-01 11:18 | 41.29796 | -8.69400 | 2235 ft | 195 kts | 348° |
| 2026-05-01 11:18 | 41.31202 | -8.69777 | 2384 ft | 217 kts | 347° |
| 2026-05-01 11:18 | 41.32761 | -8.70194 | 2523 ft | 241 kts | 347° |
| 2026-05-01 11:18 | 41.34485 | -8.70655 | 2858 ft | 261 kts | 348° |
| 2026-05-01 11:19 | 41.36300 | -8.71103 | 3519 ft | 268 kts | 355° |
| 2026-05-01 11:19 | 41.38172 | -8.70931 | 4202 ft | 272 kts | 9° |
| 2026-05-01 11:19 | 41.40058 | -8.70544 | 4938 ft | 276 kts | 9° |
| 2026-05-01 11:19 | 41.41967 | -8.70141 | 5649 ft | 279 kts | 9° |
| 2026-05-01 11:20 | 41.43900 | -8.69729 | 6363 ft | 283 kts | 9° |
| 2026-05-01 11:20 | 41.45849 | -8.69312 | 7064 ft | 285 kts | 9° |
| 2026-05-01 11:20 | 41.47818 | -8.68891 | 7727 ft | 288 kts | 9° |
| 2026-05-01 11:20 | 41.49815 | -8.68468 | 8390 ft | 292 kts | 8° |
| 2026-05-01 11:21 | 41.51834 | -8.68043 | 9043 ft | 296 kts | 8° |
| 2026-05-01 11:21 | 41.53883 | -8.67613 | 9701 ft | 300 kts | 8° |
| 2026-05-01 11:21 | 41.55960 | -8.67178 | 10329 ft | 304 kts | 8° |
| 2026-05-01 11:21 | 41.58123 | -8.66723 | 10527 ft | 326 kts | 8° |
| 2026-05-01 11:22 | 41.60433 | -8.66239 | 10657 ft | 347 kts | 8° |
| 2026-05-01 11:22 | 41.62886 | -8.65721 | 10777 ft | 366 kts | 8° |
| 2026-05-01 11:22 | 41.65470 | -8.65173 | 10899 ft | 385 kts | 8° |
| 2026-05-01 11:22 | 41.68180 | -8.64597 | 11024 ft | 403 kts | 8° |
| 2026-05-01 11:23 | 41.70991 | -8.63996 | 11320 ft | 414 kts | 8° |
| 2026-05-01 11:23 | 41.73854 | -8.63383 | 11808 ft | 419 kts | 8° |
| 2026-05-01 11:23 | 41.76744 | -8.62767 | 12344 ft | 423 kts | 8° |
| 2026-05-01 11:23 | 41.79667 | -8.62147 | 12894 ft | 428 kts | 8° |
| 2026-05-01 11:24 | 41.82624 | -8.61521 | 13438 ft | 432 kts | 8° |
| 2026-05-01 11:24 | 41.85611 | -8.60888 | 13995 ft | 437 kts | 8° |
| 2026-05-01 11:24 | 41.91667 | -8.59593 | 14989 ft | 444 kts | 8° |
| 2026-05-01 11:25 | 41.94727 | -8.58939 | 15490 ft | 447 kts | 8° |
| 2026-05-01 11:25 | 42.00917 | -8.57611 | 16438 ft | 453 kts | 8° |
| 2026-05-01 11:25 | 42.04042 | -8.56939 | 16904 ft | 456 kts | 8° |
| 2026-05-01 11:26 | 42.07189 | -8.56266 | 17341 ft | 459 kts | 8° |
| 2026-05-01 11:26 | 42.13563 | -8.55135 | 18262 ft | 464 kts | 5° |
| 2026-05-01 11:26 | 42.16786 | -8.54660 | 18640 ft | 467 kts | 5° |
| 2026-05-01 11:27 | 42.20024 | -8.54198 | 19022 ft | 470 kts | 5° |
| 2026-05-01 11:27 | 42.23281 | -8.53724 | 19396 ft | 472 kts | 5° |
| 2026-05-01 11:27 | 42.26513 | -8.53231 | 19769 ft | 474 kts | 5° |
| 2026-05-01 11:27 | 42.29842 | -8.52706 | 20151 ft | 477 kts | 5° |
| 2026-05-01 11:28 | 42.33099 | -8.52178 | 20541 ft | 479 kts | 5° |
| 2026-05-01 11:28 | 42.36418 | -8.51634 | 20921 ft | 481 kts | 5° |
| 2026-05-01 11:28 | 42.39749 | -8.51088 | 21290 ft | 484 kts | 5° |
| 2026-05-01 11:29 | 42.46450 | -8.49902 | 21988 ft | 489 kts | 10° |
| 2026-05-01 11:29 | 42.49736 | -8.48656 | 22307 ft | 493 kts | 19° |
| 2026-05-01 11:29 | 42.55772 | -8.44181 | 22974 ft | 499 kts | 37° |
| 2026-05-01 11:30 | 42.58430 | -8.41129 | 23299 ft | 502 kts | 41° |
| 2026-05-01 11:30 | 42.61066 | -8.38008 | 23640 ft | 505 kts | 41° |
| 2026-05-01 11:30 | 42.63718 | -8.34864 | 23912 ft | 507 kts | 41° |
| 2026-05-01 11:30 | 42.66372 | -8.31711 | 24268 ft | 506 kts | 41° |
| 2026-05-01 11:31 | 42.69023 | -8.28558 | 24659 ft | 505 kts | 41° |
| 2026-05-01 11:31 | 42.71665 | -8.25415 | 25035 ft | 505 kts | 41° |
| 2026-05-01 11:31 | 42.74304 | -8.22274 | 25412 ft | 505 kts | 41° |
| 2026-05-01 11:31 | 42.76942 | -8.19131 | 25792 ft | 504 kts | 41° |
| 2026-05-01 11:32 | 42.79583 | -8.15981 | 26162 ft | 504 kts | 41° |
| 2026-05-01 11:32 | 42.82218 | -8.12831 | 26531 ft | 504 kts | 41° |
| 2026-05-01 11:32 | 42.84849 | -8.09681 | 26908 ft | 504 kts | 41° |
| 2026-05-01 11:32 | 42.87481 | -8.06527 | 27267 ft | 504 kts | 41° |
| 2026-05-01 11:33 | 42.90107 | -8.03379 | 27650 ft | 504 kts | 41° |
| 2026-05-01 11:33 | 42.92740 | -8.00219 | 28020 ft | 503 kts | 41° |
| 2026-05-01 11:33 | 42.95370 | -7.97062 | 28404 ft | 503 kts | 42° |
| 2026-05-01 11:33 | 42.97995 | -7.93905 | 28759 ft | 503 kts | 42° |
| 2026-05-01 11:34 | 43.00623 | -7.90740 | 29138 ft | 504 kts | 42° |
| 2026-05-01 11:34 | 43.03249 | -7.87574 | 29491 ft | 503 kts | 42° |
| 2026-05-01 11:34 | 43.05874 | -7.84409 | 29855 ft | 503 kts | 42° |
| 2026-05-01 11:34 | 43.08500 | -7.81239 | 30213 ft | 503 kts | 42° |
| 2026-05-01 11:35 | 43.11122 | -7.78066 | 30517 ft | 503 kts | 42° |
| 2026-05-01 11:35 | 43.13739 | -7.74890 | 30828 ft | 503 kts | 42° |
| 2026-05-01 11:35 | 43.16314 | -7.71761 | 31124 ft | 502 kts | 42° |
| 2026-05-01 11:35 | 43.18927 | -7.68583 | 31452 ft | 502 kts | 42° |
| 2026-05-01 11:36 | 43.21540 | -7.65403 | 31736 ft | 502 kts | 42° |
| 2026-05-01 11:36 | 43.24150 | -7.62228 | 32043 ft | 502 kts | 42° |
| 2026-05-01 11:36 | 43.26763 | -7.59048 | 32343 ft | 501 kts | 42° |
| 2026-05-01 11:36 | 43.29364 | -7.55879 | 32685 ft | 499 kts | 42° |
| 2026-05-01 11:37 | 43.31959 | -7.52711 | 32998 ft | 499 kts | 42° |
| 2026-05-01 11:37 | 43.34547 | -7.49545 | 33292 ft | 498 kts | 42° |
| 2026-05-01 11:37 | 43.37131 | -7.46377 | 33598 ft | 498 kts | 42° |
| 2026-05-01 11:37 | 43.39711 | -7.43208 | 33906 ft | 497 kts | 42° |
| 2026-05-01 11:38 | 43.42291 | -7.40040 | 34117 ft | 498 kts | 42° |
| 2026-05-01 11:38 | 43.47494 | -7.33644 | 34152 ft | 503 kts | 42° |
| 2026-05-01 11:39 | 43.52717 | -7.27203 | 34164 ft | 504 kts | 42° |
| 2026-05-01 11:39 | 43.57935 | -7.20752 | 34155 ft | 504 kts | 43° |
| 2026-05-01 11:40 | 43.63148 | -7.14296 | 34154 ft | 504 kts | 43° |
| 2026-05-01 11:40 | 43.68362 | -7.07816 | 34179 ft | 505 kts | 43° |
| 2026-05-01 11:41 | 43.73572 | -7.01320 | 34187 ft | 505 kts | 43° |
| 2026-05-01 11:41 | 43.78791 | -6.94815 | 34187 ft | 505 kts | 43° |
| 2026-05-01 11:42 | 43.84009 | -6.88304 | 34195 ft | 505 kts | 43° |
| 2026-05-01 11:42 | 43.89218 | -6.81766 | 34179 ft | 505 kts | 43° |
| 2026-05-01 11:43 | 43.94390 | -6.75253 | 34185 ft | 505 kts | 43° |
| 2026-05-01 11:43 | 43.99595 | -6.68694 | 34192 ft | 506 kts | 43° |
| 2026-05-01 11:44 | 44.07403 | -6.58824 | 34200 ft | 506 kts | 43° |
| 2026-05-01 11:44 | 44.12606 | -6.52215 | 34202 ft | 507 kts | 43° |
| 2026-05-01 11:45 | 44.17809 | -6.45594 | 34181 ft | 507 kts | 43° |
| 2026-05-01 11:45 | 44.23010 | -6.38978 | 34206 ft | 506 kts | 43° |
| 2026-05-01 11:46 | 44.28194 | -6.32352 | 34214 ft | 505 kts | 44° |
| 2026-05-01 11:46 | 44.33365 | -6.25722 | 34210 ft | 505 kts | 44° |
| 2026-05-01 11:47 | 44.38530 | -6.19080 | 34211 ft | 504 kts | 44° |
| 2026-05-01 11:47 | 44.43697 | -6.12430 | 34210 ft | 504 kts | 44° |
| 2026-05-01 11:48 | 44.48858 | -6.05770 | 34202 ft | 504 kts | 43° |
| 2026-05-01 11:48 | 44.54007 | -5.99112 | 34213 ft | 503 kts | 43° |
| 2026-05-01 11:49 | 44.59147 | -5.92455 | 34214 ft | 503 kts | 44° |
| 2026-05-01 11:49 | 44.63414 | -5.86911 | 34223 ft | 503 kts | 44° |
| 2026-05-01 11:50 | 44.68517 | -5.80185 | 34223 ft | 503 kts | 45° |
| 2026-05-01 11:50 | 44.73527 | -5.73326 | 34227 ft | 503 kts | 45° |
| 2026-05-01 11:51 | 44.78506 | -5.66417 | 34228 ft | 502 kts | 45° |
| 2026-05-01 11:51 | 44.83483 | -5.59535 | 34232 ft | 501 kts | 45° |
| 2026-05-01 11:52 | 44.88460 | -5.52683 | 34239 ft | 500 kts | 45° |
| 2026-05-01 11:52 | 44.93446 | -5.45818 | 34229 ft | 501 kts | 45° |
| 2026-05-01 11:53 | 44.98411 | -5.38929 | 34227 ft | 501 kts | 45° |
| 2026-05-01 11:53 | 45.03379 | -5.32032 | 34221 ft | 500 kts | 45° |
| 2026-05-01 11:54 | 45.08337 | -5.25132 | 34237 ft | 500 kts | 45° |
| 2026-05-01 11:54 | 45.13280 | -5.18211 | 34241 ft | 500 kts | 45° |
| 2026-05-01 11:55 | 45.18227 | -5.11285 | 34237 ft | 500 kts | 45° |
| 2026-05-01 11:55 | 45.23172 | -5.04356 | 34237 ft | 500 kts | 45° |
| 2026-05-01 11:56 | 45.28100 | -4.97414 | 34249 ft | 499 kts | 45° |
| 2026-05-01 11:56 | 45.33013 | -4.90465 | 34247 ft | 498 kts | 45° |
| 2026-05-01 11:57 | 45.37923 | -4.83519 | 34248 ft | 498 kts | 45° |
| 2026-05-01 11:57 | 45.42831 | -4.76564 | 34247 ft | 497 kts | 45° |
| 2026-05-01 11:58 | 45.47724 | -4.69613 | 34249 ft | 497 kts | 45° |
| 2026-05-01 11:59 | 45.55062 | -4.59162 | 34253 ft | 496 kts | 44° |
| 2026-05-01 11:59 | 45.59930 | -4.52194 | 34253 ft | 495 kts | 44° |
| 2026-05-01 12:00 | 45.67176 | -4.41783 | 34254 ft | 494 kts | 44° |
| 2026-05-01 12:01 | 45.74440 | -4.31303 | 34256 ft | 495 kts | 44° |
| 2026-05-01 12:01 | 45.79282 | -4.24296 | 34251 ft | 495 kts | 45° |
| 2026-05-01 12:02 | 45.84122 | -4.17279 | 34249 ft | 495 kts | 45° |
| 2026-05-01 12:02 | 45.88957 | -4.10250 | 34251 ft | 495 kts | 45° |
| 2026-05-01 12:03 | 45.93793 | -4.03198 | 34252 ft | 496 kts | 45° |
| 2026-05-01 12:03 | 45.98628 | -3.96133 | 34242 ft | 496 kts | 44° |
| 2026-05-01 12:04 | 46.03462 | -3.89064 | 34256 ft | 495 kts | 44° |
| 2026-05-01 12:04 | 46.08271 | -3.81994 | 34262 ft | 494 kts | 44° |
| 2026-05-01 12:05 | 46.13069 | -3.74914 | 34265 ft | 494 kts | 44° |
| 2026-05-01 12:05 | 46.20271 | -3.64283 | 34264 ft | 494 kts | 44° |
| 2026-05-01 12:06 | 46.25072 | -3.57169 | 34261 ft | 494 kts | 44° |
| 2026-05-01 12:06 | 46.29811 | -3.50095 | 34274 ft | 492 kts | 44° |
| 2026-05-01 12:07 | 46.34569 | -3.42994 | 34276 ft | 491 kts | 44° |
| 2026-05-01 12:07 | 46.39324 | -3.35889 | 34275 ft | 491 kts | 44° |
| 2026-05-01 12:08 | 46.44072 | -3.28780 | 34269 ft | 491 kts | 44° |
| 2026-05-01 12:08 | 46.48813 | -3.21655 | 34261 ft | 491 kts | 45° |
| 2026-05-01 12:09 | 46.53534 | -3.14534 | 34283 ft | 489 kts | 45° |
| 2026-05-01 12:09 | 46.57879 | -3.06974 | 34277 ft | 489 kts | 57° |
| 2026-05-01 12:10 | 46.63023 | -2.94173 | 34277 ft | 489 kts | 59° |
| 2026-05-01 12:11 | 46.68165 | -2.81367 | 34268 ft | 488 kts | 59° |
| 2026-05-01 12:11 | 46.71576 | -2.72819 | 34272 ft | 487 kts | 60° |
| 2026-05-01 12:12 | 46.74970 | -2.64277 | 34273 ft | 487 kts | 60° |
| 2026-05-01 12:12 | 46.78357 | -2.55730 | 34266 ft | 486 kts | 60° |
| 2026-05-01 12:13 | 46.81732 | -2.47175 | 34262 ft | 486 kts | 60° |
| 2026-05-01 12:13 | 46.85100 | -2.38618 | 34251 ft | 486 kts | 60° |
| 2026-05-01 12:14 | 46.88528 | -2.30111 | 34255 ft | 485 kts | 58° |
| 2026-05-01 12:14 | 46.92102 | -2.21735 | 34245 ft | 485 kts | 58° |
| 2026-05-01 12:15 | 46.95685 | -2.13370 | 34251 ft | 485 kts | 58° |
| 2026-05-01 12:15 | 46.99224 | -2.04959 | 34241 ft | 485 kts | 58° |
| 2026-05-01 12:16 | 47.02692 | -1.96480 | 34232 ft | 484 kts | 60° |
| 2026-05-01 12:16 | 47.05992 | -1.87876 | 34233 ft | 484 kts | 61° |
| 2026-05-01 12:17 | 47.09247 | -1.79235 | 34233 ft | 484 kts | 61° |
| 2026-05-01 12:17 | 47.12502 | -1.70671 | 34245 ft | 484 kts | 60° |
| 2026-05-01 12:18 | 47.15813 | -1.62005 | 34242 ft | 483 kts | 60° |
| 2026-05-01 12:18 | 47.19321 | -1.53588 | 34248 ft | 482 kts | 56° |
| 2026-05-01 12:19 | 47.23103 | -1.45449 | 34246 ft | 482 kts | 54° |
| 2026-05-01 12:19 | 47.26860 | -1.37369 | 34239 ft | 481 kts | 56° |
| 2026-05-01 12:20 | 47.30546 | -1.29140 | 34234 ft | 481 kts | 56° |
| 2026-05-01 12:20 | 47.34188 | -1.20864 | 34231 ft | 481 kts | 56° |
| 2026-05-01 12:21 | 47.37833 | -1.12596 | 34228 ft | 480 kts | 56° |
| 2026-05-01 12:21 | 47.41483 | -1.04344 | 34234 ft | 480 kts | 56° |
| 2026-05-01 12:22 | 47.45126 | -0.96087 | 34229 ft | 480 kts | 56° |
| 2026-05-01 12:22 | 47.48762 | -0.87822 | 34228 ft | 479 kts | 56° |
| 2026-05-01 12:23 | 47.52387 | -0.79549 | 34232 ft | 479 kts | 55° |
| 2026-05-01 12:23 | 47.56003 | -0.71265 | 34233 ft | 479 kts | 55° |
| 2026-05-01 12:24 | 47.59609 | -0.62973 | 34246 ft | 479 kts | 55° |
| 2026-05-01 12:24 | 47.63208 | -0.54675 | 34243 ft | 478 kts | 55° |
| 2026-05-01 12:25 | 47.68587 | -0.42230 | 34243 ft | 477 kts | 56° |
| 2026-05-01 12:26 | 47.72164 | -0.33923 | 34242 ft | 477 kts | 56° |
| 2026-05-01 12:26 | 47.75934 | -0.25149 | 34243 ft | 477 kts | 56° |
| 2026-05-01 12:27 | 47.81249 | -0.12712 | 34246 ft | 477 kts | 56° |
| 2026-05-01 12:28 | 47.86565 | -0.00227 | 34256 ft | 475 kts | 56° |
| 2026-05-01 12:29 | 47.91859 | 0.12255 | 34250 ft | 475 kts | 56° |
| 2026-05-01 12:29 | 47.97141 | 0.24754 | 34246 ft | 474 kts | 57° |
| 2026-05-01 12:30 | 48.02393 | 0.37277 | 34256 ft | 475 kts | 57° |
| 2026-05-01 12:31 | 48.05888 | 0.45645 | 34259 ft | 474 kts | 59° |
| 2026-05-01 12:31 | 48.09370 | 0.53990 | 34252 ft | 471 kts | 58° |
| 2026-05-01 12:32 | 48.12941 | 0.62181 | 34249 ft | 470 kts | 53° |
| 2026-05-01 12:32 | 48.18898 | 0.73835 | 34245 ft | 469 kts | 53° |
| 2026-05-01 12:33 | 48.22851 | 0.81620 | 34245 ft | 469 kts | 54° |
| 2026-05-01 12:33 | 48.26786 | 0.89404 | 34248 ft | 468 kts | 55° |
| 2026-05-01 12:34 | 48.30708 | 0.97182 | 34246 ft | 467 kts | 55° |
| 2026-05-01 12:34 | 48.34602 | 1.04907 | 34244 ft | 467 kts | 55° |
| 2026-05-01 12:35 | 48.38518 | 1.12681 | 34243 ft | 466 kts | 55° |
| 2026-05-01 12:35 | 48.41443 | 1.18512 | 34244 ft | 466 kts | 55° |
| 2026-05-01 12:36 | 48.45337 | 1.26321 | 34239 ft | 466 kts | 56° |
| 2026-05-01 12:36 | 48.49211 | 1.34126 | 34241 ft | 465 kts | 57° |
| 2026-05-01 12:37 | 48.53083 | 1.41915 | 34242 ft | 463 kts | 57° |
| 2026-05-01 12:37 | 48.56933 | 1.49698 | 34242 ft | 462 kts | 57° |
| 2026-05-01 12:38 | 48.60151 | 1.56216 | 34247 ft | 462 kts | 57° |
| 2026-05-01 12:38 | 48.63858 | 1.64043 | 34242 ft | 458 kts | 64° |
| 2026-05-01 12:39 | 48.66331 | 1.72771 | 34241 ft | 450 kts | 75° |
| 2026-05-01 12:39 | 48.68480 | 1.81644 | 34241 ft | 449 kts | 75° |
| 2026-05-01 12:40 | 48.70641 | 1.90516 | 34246 ft | 449 kts | 75° |
| 2026-05-01 12:40 | 48.72783 | 1.99366 | 34244 ft | 448 kts | 75° |
| 2026-05-01 12:41 | 48.74906 | 2.08247 | 34245 ft | 448 kts | 75° |
| 2026-05-01 12:41 | 48.76811 | 2.17189 | 34248 ft | 445 kts | 79° |
| 2026-05-01 12:42 | 48.78375 | 2.26253 | 34236 ft | 444 kts | 81° |
| 2026-05-01 12:42 | 48.79890 | 2.35327 | 34239 ft | 444 kts | 80° |
| 2026-05-01 12:43 | 48.81483 | 2.44378 | 34239 ft | 444 kts | 79° |
| 2026-05-01 12:43 | 48.83110 | 2.53425 | 34242 ft | 444 kts | 79° |
| 2026-05-01 12:44 | 48.84735 | 2.62475 | 34222 ft | 444 kts | 79° |
| 2026-05-01 12:45 | 48.87916 | 2.80639 | 34230 ft | 446 kts | 80° |
| 2026-05-01 12:45 | 48.89509 | 2.89749 | 34241 ft | 446 kts | 80° |
| 2026-05-01 12:46 | 48.91080 | 2.98801 | 34248 ft | 446 kts | 80° |
| 2026-05-01 12:46 | 48.92650 | 3.07923 | 34227 ft | 446 kts | 80° |
| 2026-05-01 12:47 | 48.94220 | 3.17092 | 34225 ft | 448 kts | 79° |
| 2026-05-01 12:47 | 48.95790 | 3.26276 | 34228 ft | 449 kts | 79° |
| 2026-05-01 12:48 | 48.97348 | 3.35483 | 34236 ft | 450 kts | 80° |
| 2026-05-01 12:48 | 48.98904 | 3.44719 | 34246 ft | 450 kts | 80° |
| 2026-05-01 12:49 | 49.00452 | 3.53964 | 34239 ft | 451 kts | 79° |
| 2026-05-01 12:49 | 49.01999 | 3.63233 | 34237 ft | 452 kts | 79° |
| 2026-05-01 12:50 | 49.03548 | 3.72535 | 34230 ft | 454 kts | 79° |
| 2026-05-01 12:50 | 49.05091 | 3.81866 | 34235 ft | 455 kts | 79° |
| 2026-05-01 12:51 | 49.06622 | 3.91221 | 34246 ft | 455 kts | 79° |
| 2026-05-01 12:52 | 49.08918 | 4.05286 | 34261 ft | 456 kts | 79° |
| 2026-05-01 12:52 | 49.11201 | 4.19369 | 34258 ft | 456 kts | 80° |
| 2026-05-01 12:53 | 49.13450 | 4.33418 | 34264 ft | 456 kts | 79° |
| 2026-05-01 12:54 | 49.15626 | 4.42563 | 34248 ft | 460 kts | 70° |
| 2026-05-01 12:54 | 49.19316 | 4.56128 | 34256 ft | 461 kts | 70° |
| 2026-05-01 12:55 | 49.22983 | 4.69727 | 34265 ft | 461 kts | 70° |
| 2026-05-01 12:56 | 49.25424 | 4.78811 | 34276 ft | 461 kts | 70° |
| 2026-05-01 12:56 | 49.27854 | 4.87906 | 34276 ft | 461 kts | 70° |
| 2026-05-01 12:57 | 49.30274 | 4.97003 | 34268 ft | 461 kts | 70° |
| 2026-05-01 12:57 | 49.33886 | 5.10679 | 34277 ft | 462 kts | 70° |
| 2026-05-01 12:58 | 49.36295 | 5.19808 | 34286 ft | 462 kts | 70° |
| 2026-05-01 12:59 | 49.39918 | 5.33535 | 34287 ft | 462 kts | 70° |
| 2026-05-01 12:59 | 49.43505 | 5.47295 | 34279 ft | 463 kts | 70° |
| 2026-05-01 13:00 | 49.47070 | 5.61108 | 34299 ft | 464 kts | 70° |
| 2026-05-01 13:01 | 49.50637 | 5.74949 | 34299 ft | 464 kts | 70° |
| 2026-05-01 13:02 | 49.54108 | 5.88864 | 34297 ft | 464 kts | 71° |
| 2026-05-01 13:07 | 49.84521 | 6.88036 | 34294 ft | 466 kts | 62° |
| 2026-05-01 13:08 | 49.87553 | 6.96892 | 34309 ft | 465 kts | 62° |
| 2026-05-01 13:08 | 49.90573 | 7.05746 | 34320 ft | 464 kts | 62° |
| 2026-05-01 13:09 | 49.90808 | 7.06437 | 34309 ft | 464 kts | 62° |
| 2026-05-01 13:10 | 49.91410 | 7.08212 | 34331 ft | 464 kts | 62° |
| 2026-05-01 13:11 | 49.94417 | 7.17070 | 34358 ft | 464 kts | 62° |
| 2026-05-01 13:11 | 49.97423 | 7.25937 | 34358 ft | 464 kts | 62° |
| 2026-05-01 13:12 | 50.00424 | 7.34806 | 34347 ft | 464 kts | 62° |
| 2026-05-01 13:12 | 50.03420 | 7.43693 | 34339 ft | 464 kts | 62° |
| 2026-05-01 13:13 | 50.06401 | 7.52588 | 34323 ft | 464 kts | 62° |
| 2026-05-01 13:13 | 50.09373 | 7.61497 | 34325 ft | 464 kts | 62° |
| 2026-05-01 13:14 | 50.12341 | 7.70411 | 34322 ft | 464 kts | 62° |
| 2026-05-01 13:14 | 50.15281 | 7.79284 | 34327 ft | 464 kts | 62° |
| 2026-05-01 13:15 | 50.18252 | 7.88274 | 34340 ft | 463 kts | 62° |
| 2026-05-01 13:15 | 50.21178 | 7.97158 | 34342 ft | 463 kts | 62° |
| 2026-05-01 13:16 | 50.24109 | 8.06095 | 34345 ft | 462 kts | 62° |
| 2026-05-01 13:16 | 50.27033 | 8.15038 | 34344 ft | 462 kts | 62° |
| 2026-05-01 13:17 | 50.32864 | 8.32968 | 34354 ft | 462 kts | 62° |
| 2026-05-01 13:18 | 50.37205 | 8.46416 | 34358 ft | 461 kts | 62° |
| 2026-05-01 13:18 | 50.40085 | 8.55371 | 34360 ft | 460 kts | 61° |
| 2026-05-01 13:19 | 50.42952 | 8.64334 | 34357 ft | 459 kts | 62° |
| 2026-05-01 13:20 | 50.47238 | 8.77751 | 34356 ft | 458 kts | 62° |
| 2026-05-01 13:20 | 50.50089 | 8.86707 | 34356 ft | 458 kts | 62° |
| 2026-05-01 13:21 | 50.54321 | 9.00107 | 34359 ft | 459 kts | 62° |
| 2026-05-01 13:21 | 50.57147 | 9.09101 | 34357 ft | 459 kts | 62° |
| 2026-05-01 13:22 | 50.59973 | 9.18113 | 34360 ft | 459 kts | 62° |
| 2026-05-01 13:22 | 50.62796 | 9.27135 | 34356 ft | 459 kts | 63° |
| 2026-05-01 13:23 | 50.65605 | 9.36171 | 34364 ft | 459 kts | 62° |
| 2026-05-01 13:23 | 50.68414 | 9.45210 | 34366 ft | 459 kts | 62° |
| 2026-05-01 13:24 | 50.71208 | 9.54248 | 34360 ft | 459 kts | 63° |
| 2026-05-01 13:25 | 50.74660 | 9.68327 | 34363 ft | 460 kts | 71° |
| 2026-05-01 13:25 | 50.76621 | 9.77931 | 34366 ft | 459 kts | 70° |
| 2026-05-01 13:26 | 50.78584 | 9.87539 | 34364 ft | 459 kts | 71° |
| 2026-05-01 13:26 | 50.80526 | 9.97144 | 34375 ft | 458 kts | 71° |
| 2026-05-01 13:27 | 50.82127 | 10.05124 | 34379 ft | 457 kts | 71° |
| 2026-05-01 13:27 | 50.85000 | 10.19490 | 34379 ft | 457 kts | 72° |
| 2026-05-01 13:28 | 50.87864 | 10.33872 | 34382 ft | 456 kts | 71° |
| 2026-05-01 13:29 | 50.91723 | 10.53020 | 34380 ft | 456 kts | 70° |
| 2026-05-01 13:31 | 50.97879 | 10.81600 | 34388 ft | 457 kts | 71° |
| 2026-05-01 13:32 | 51.02872 | 11.05496 | 34407 ft | 455 kts | 70° |
| 2026-05-01 13:33 | 51.07797 | 11.29355 | 34413 ft | 453 kts | 71° |
| 2026-05-01 13:34 | 51.11697 | 11.48420 | 34421 ft | 453 kts | 71° |
| 2026-05-01 13:35 | 51.14588 | 11.62637 | 34416 ft | 451 kts | 71° |
| 2026-05-01 13:36 | 51.17465 | 11.76906 | 34416 ft | 451 kts | 71° |
| 2026-05-01 13:36 | 51.20319 | 11.91189 | 34414 ft | 450 kts | 71° |
| 2026-05-01 13:37 | 51.22210 | 12.00707 | 34423 ft | 450 kts | 71° |
| 2026-05-01 13:37 | 51.24088 | 12.10220 | 34420 ft | 449 kts | 71° |
| 2026-05-01 13:38 | 51.26896 | 12.24486 | 34415 ft | 449 kts | 71° |
| 2026-05-01 13:39 | 51.28753 | 12.33999 | 34415 ft | 449 kts | 71° |
| 2026-05-01 13:39 | 51.30608 | 12.43520 | 34415 ft | 449 kts | 71° |
| 2026-05-01 13:40 | 51.32454 | 12.53047 | 34426 ft | 448 kts | 71° |
| 2026-05-01 13:40 | 51.34287 | 12.62576 | 34427 ft | 448 kts | 72° |
| 2026-05-01 13:41 | 51.36111 | 12.72085 | 34419 ft | 447 kts | 72° |
| 2026-05-01 13:41 | 51.37929 | 12.81593 | 34417 ft | 447 kts | 72° |
| 2026-05-01 13:42 | 51.39731 | 12.91111 | 34415 ft | 447 kts | 72° |
| 2026-05-01 13:42 | 51.41519 | 13.00641 | 34414 ft | 447 kts | 72° |
| 2026-05-01 13:43 | 51.43307 | 13.10164 | 34429 ft | 446 kts | 72° |
| 2026-05-01 13:43 | 51.45092 | 13.19685 | 34420 ft | 445 kts | 72° |
| 2026-05-01 13:44 | 51.46863 | 13.29199 | 34417 ft | 445 kts | 72° |
| 2026-05-01 13:44 | 51.48615 | 13.38713 | 34412 ft | 445 kts | 72° |
| 2026-05-01 13:45 | 51.50363 | 13.48234 | 34409 ft | 444 kts | 72° |
| 2026-05-01 13:45 | 51.52094 | 13.57689 | 34408 ft | 444 kts | 72° |
| 2026-05-01 13:46 | 51.53818 | 13.67168 | 34414 ft | 444 kts | 72° |
| 2026-05-01 13:46 | 51.55522 | 13.76560 | 34466 ft | 442 kts | 72° |
| 2026-05-01 13:46 | 51.56376 | 13.81294 | 34791 ft | 440 kts | 72° |
| 2026-05-01 13:47 | 51.57224 | 13.86021 | 35096 ft | 439 kts | 72° |
| 2026-05-01 13:47 | 51.58069 | 13.90732 | 35373 ft | 439 kts | 72° |
| 2026-05-01 13:47 | 51.58914 | 13.95446 | 35645 ft | 439 kts | 72° |
| 2026-05-01 13:47 | 51.59755 | 14.00154 | 35913 ft | 438 kts | 72° |
| 2026-05-01 13:48 | 51.60593 | 14.04869 | 36175 ft | 438 kts | 72° |
| 2026-05-01 13:48 | 51.61429 | 14.09579 | 36438 ft | 438 kts | 72° |
| 2026-05-01 13:48 | 51.62265 | 14.14293 | 36702 ft | 438 kts | 72° |
| 2026-05-01 13:48 | 51.63097 | 14.18995 | 36970 ft | 437 kts | 72° |
| 2026-05-01 13:49 | 51.63928 | 14.23705 | 37229 ft | 437 kts | 72° |
| 2026-05-01 13:49 | 51.64758 | 14.28421 | 37359 ft | 438 kts | 72° |
| 2026-05-01 13:49 | 51.65585 | 14.33138 | 37378 ft | 438 kts | 72° |
| 2026-05-01 13:50 | 51.67224 | 14.42566 | 37377 ft | 437 kts | 72° |
| 2026-05-01 13:50 | 51.68865 | 14.52008 | 37378 ft | 437 kts | 72° |
| 2026-05-01 13:51 | 51.70491 | 14.61439 | 37375 ft | 437 kts | 72° |
| 2026-05-01 13:51 | 51.72118 | 14.70885 | 37382 ft | 437 kts | 72° |
| 2026-05-01 13:52 | 51.73744 | 14.80338 | 37380 ft | 438 kts | 72° |
| 2026-05-01 13:52 | 51.75367 | 14.89808 | 37381 ft | 438 kts | 72° |
| 2026-05-01 13:53 | 51.76977 | 14.99215 | 37379 ft | 438 kts | 72° |
| 2026-05-01 13:53 | 51.79393 | 15.13459 | 37374 ft | 439 kts | 72° |
| 2026-05-01 13:54 | 51.80989 | 15.22970 | 37375 ft | 439 kts | 72° |
| 2026-05-01 13:54 | 51.82580 | 15.32494 | 37388 ft | 439 kts | 72° |
| 2026-05-01 13:55 | 51.84164 | 15.42020 | 37381 ft | 438 kts | 72° |
| 2026-05-01 13:55 | 51.85738 | 15.51538 | 37380 ft | 438 kts | 72° |
| 2026-05-01 13:56 | 51.87301 | 15.61072 | 37373 ft | 438 kts | 72° |
| 2026-05-01 13:56 | 51.88863 | 15.70605 | 37374 ft | 438 kts | 72° |
| 2026-05-01 13:57 | 51.90169 | 15.78601 | 37372 ft | 438 kts | 72° |
| 2026-05-01 13:57 | 51.92028 | 15.89665 | 37381 ft | 438 kts | 71° |
| 2026-05-01 13:58 | 51.93639 | 15.99164 | 37376 ft | 437 kts | 71° |
| 2026-05-01 13:58 | 51.95229 | 16.08673 | 37367 ft | 437 kts | 71° |
| 2026-05-01 13:59 | 51.96802 | 16.18199 | 37366 ft | 437 kts | 72° |
| 2026-05-01 13:59 | 51.98369 | 16.27728 | 37366 ft | 437 kts | 72° |
| 2026-05-01 14:00 | 51.99927 | 16.37255 | 37389 ft | 437 kts | 71° |
| 2026-05-01 14:00 | 52.01482 | 16.46793 | 37371 ft | 437 kts | 72° |
| 2026-05-01 14:01 | 52.03024 | 16.56333 | 37365 ft | 437 kts | 72° |
| 2026-05-01 14:01 | 52.04557 | 16.65884 | 37363 ft | 437 kts | 72° |
| 2026-05-01 14:02 | 52.06081 | 16.75378 | 37354 ft | 437 kts | 72° |
| 2026-05-01 14:02 | 52.07615 | 16.84989 | 37356 ft | 437 kts | 72° |
| 2026-05-01 14:03 | 52.09131 | 16.94549 | 37376 ft | 437 kts | 72° |
| 2026-05-01 14:03 | 52.10637 | 17.04111 | 37363 ft | 436 kts | 72° |
| 2026-05-01 14:04 | 52.12120 | 17.13600 | 37359 ft | 435 kts | 72° |
| 2026-05-01 14:04 | 52.13362 | 17.21603 | 37357 ft | 435 kts | 72° |
| 2026-05-01 14:05 | 52.15073 | 17.32701 | 37354 ft | 435 kts | 72° |
| 2026-05-01 14:05 | 52.16544 | 17.42249 | 37351 ft | 435 kts | 72° |
| 2026-05-01 14:06 | 52.18002 | 17.51809 | 37374 ft | 435 kts | 72° |
| 2026-05-01 14:06 | 52.19449 | 17.61361 | 37360 ft | 434 kts | 72° |
| 2026-05-01 14:07 | 52.20896 | 17.70908 | 37359 ft | 433 kts | 72° |
| 2026-05-01 14:08 | 52.23047 | 17.85221 | 37351 ft | 433 kts | 72° |
| 2026-05-01 14:08 | 52.24457 | 17.94773 | 37351 ft | 433 kts | 72° |
| 2026-05-01 14:09 | 52.25624 | 18.04429 | 37348 ft | 436 kts | 78° |
| 2026-05-01 14:09 | 52.26490 | 18.14189 | 37053 ft | 433 kts | 77° |
| 2026-05-01 14:09 | 52.26924 | 18.19047 | 36795 ft | 432 kts | 77° |
| 2026-05-01 14:10 | 52.27353 | 18.23890 | 36534 ft | 431 kts | 77° |
| 2026-05-01 14:10 | 52.27775 | 18.28702 | 36279 ft | 431 kts | 77° |
| 2026-05-01 14:10 | 52.28200 | 18.33554 | 36024 ft | 431 kts | 77° |
| 2026-05-01 14:10 | 52.28621 | 18.38389 | 35773 ft | 431 kts | 77° |
| 2026-05-01 14:11 | 52.29037 | 18.43205 | 35229 ft | 430 kts | 77° |
| 2026-05-01 14:11 | 52.29867 | 18.52898 | 33708 ft | 433 kts | 78° |
| 2026-05-01 14:11 | 52.30282 | 18.57785 | 32936 ft | 433 kts | 78° |
| 2026-05-01 14:12 | 52.30691 | 18.62663 | 32135 ft | 434 kts | 78° |
| 2026-05-01 14:12 | 52.31101 | 18.67565 | 31233 ft | 437 kts | 78° |
| 2026-05-01 14:12 | 52.31512 | 18.72485 | 30382 ft | 437 kts | 78° |
| 2026-05-01 14:12 | 52.31927 | 18.77422 | 29284 ft | 439 kts | 78° |
| 2026-05-01 14:13 | 52.32201 | 18.80695 | 28647 ft | 439 kts | 78° |
| 2026-05-01 14:13 | 52.32609 | 18.85639 | 27718 ft | 439 kts | 79° |
| 2026-05-01 14:13 | 52.33014 | 18.90589 | 26666 ft | 441 kts | 79° |
| 2026-05-01 14:13 | 52.33416 | 18.95582 | 25539 ft | 445 kts | 79° |
| 2026-05-01 14:14 | 52.33759 | 19.00622 | 24517 ft | 448 kts | 81° |
| 2026-05-01 14:14 | 52.34035 | 19.05697 | 23518 ft | 448 kts | 82° |
| 2026-05-01 14:14 | 52.34269 | 19.10753 | 22685 ft | 443 kts | 82° |
| 2026-05-01 14:14 | 52.34487 | 19.15743 | 21886 ft | 437 kts | 82° |
| 2026-05-01 14:15 | 52.34705 | 19.20668 | 21075 ft | 431 kts | 81° |
| 2026-05-01 14:15 | 52.34935 | 19.25530 | 20287 ft | 426 kts | 81° |
| 2026-05-01 14:15 | 52.35175 | 19.30325 | 19511 ft | 421 kts | 81° |
| 2026-05-01 14:15 | 52.35417 | 19.35079 | 18752 ft | 417 kts | 80° |
| 2026-05-01 14:16 | 52.35654 | 19.39772 | 17920 ft | 412 kts | 81° |
| 2026-05-01 14:16 | 52.35883 | 19.44402 | 17181 ft | 405 kts | 81° |
| 2026-05-01 14:16 | 52.36103 | 19.48961 | 16439 ft | 399 kts | 81° |
| 2026-05-01 14:16 | 52.36318 | 19.53463 | 15714 ft | 395 kts | 81° |
| 2026-05-01 14:17 | 52.36530 | 19.57922 | 15019 ft | 392 kts | 81° |
| 2026-05-01 14:17 | 52.36741 | 19.62357 | 14348 ft | 389 kts | 81° |
| 2026-05-01 14:17 | 52.36952 | 19.66762 | 13654 ft | 387 kts | 81° |
| 2026-05-01 14:17 | 52.37157 | 19.71140 | 12950 ft | 385 kts | 81° |
| 2026-05-01 14:18 | 52.37376 | 19.75469 | 12447 ft | 375 kts | 78° |
| 2026-05-01 14:18 | 52.37960 | 19.79528 | 12206 ft | 367 kts | 67° |
| 2026-05-01 14:18 | 52.38920 | 19.83457 | 11945 ft | 374 kts | 65° |
| 2026-05-01 14:18 | 52.39568 | 19.86074 | 11778 ft | 375 kts | 65° |
| 2026-05-01 14:19 | 52.40872 | 19.91370 | 11438 ft | 375 kts | 65° |
| 2026-05-01 14:19 | 52.41838 | 19.95312 | 11201 ft | 374 kts | 65° |
| 2026-05-01 14:19 | 52.42803 | 19.99267 | 10963 ft | 373 kts | 65° |
| 2026-05-01 14:19 | 52.43766 | 20.03219 | 10713 ft | 373 kts | 65° |
| 2026-05-01 14:20 | 52.44724 | 20.07158 | 10470 ft | 371 kts | 65° |
| 2026-05-01 14:20 | 52.46624 | 20.15014 | 10310 ft | 371 kts | 65° |
| 2026-05-01 14:20 | 52.47572 | 20.18958 | 10309 ft | 372 kts | 65° |
| 2026-05-01 14:21 | 52.48516 | 20.22900 | 10313 ft | 371 kts | 65° |
| 2026-05-01 14:21 | 52.49465 | 20.26838 | 10314 ft | 372 kts | 65° |
| 2026-05-01 14:21 | 52.50333 | 20.30848 | 10307 ft | 375 kts | 74° |
| 2026-05-01 14:22 | 52.49541 | 20.39320 | 10312 ft | 393 kts | 114° |
| 2026-05-01 14:22 | 52.48196 | 20.43228 | 10308 ft | 394 kts | 116° |
| 2026-05-01 14:22 | 52.46824 | 20.47119 | 10310 ft | 394 kts | 116° |
| 2026-05-01 14:22 | 52.45441 | 20.51014 | 10310 ft | 394 kts | 116° |
| 2026-05-01 14:23 | 52.44064 | 20.54898 | 10308 ft | 394 kts | 116° |
| 2026-05-01 14:23 | 52.42693 | 20.58782 | 10313 ft | 394 kts | 116° |
| 2026-05-01 14:23 | 52.41345 | 20.62619 | 10305 ft | 393 kts | 115° |
| 2026-05-01 14:23 | 52.39984 | 20.66502 | 10299 ft | 393 kts | 115° |
| 2026-05-01 14:24 | 52.38623 | 20.70387 | 10292 ft | 393 kts | 115° |
| 2026-05-01 14:24 | 52.37241 | 20.74323 | 10306 ft | 394 kts | 116° |
| 2026-05-01 14:24 | 52.35874 | 20.78205 | 10308 ft | 394 kts | 115° |
| 2026-05-01 14:24 | 52.34505 | 20.82078 | 10304 ft | 393 kts | 115° |
| 2026-05-01 14:25 | 52.33135 | 20.85945 | 10305 ft | 393 kts | 115° |
| 2026-05-01 14:25 | 52.31760 | 20.89814 | 10302 ft | 393 kts | 116° |
| 2026-05-01 14:25 | 52.30386 | 20.93671 | 10305 ft | 393 kts | 116° |
| 2026-05-01 14:25 | 52.29011 | 20.97531 | 9831 ft | 394 kts | 116° |
| 2026-05-01 14:26 | 52.27555 | 21.01268 | 9123 ft | 394 kts | 125° |
| 2026-05-01 14:26 | 52.23096 | 21.06365 | 8242 ft | 395 kts | 149° |
| 2026-05-01 14:26 | 52.20679 | 21.08457 | 7845 ft | 392 kts | 149° |
| 2026-05-01 14:27 | 52.18238 | 21.10547 | 7641 ft | 390 kts | 150° |
| 2026-05-01 14:27 | 52.15869 | 21.12572 | 7489 ft | 390 kts | 150° |
| 2026-05-01 14:27 | 52.13476 | 21.14625 | 7189 ft | 387 kts | 150° |
| 2026-05-01 14:28 | 52.08778 | 21.18723 | 6165 ft | 378 kts | 150° |
| 2026-05-01 14:28 | 52.06470 | 21.20754 | 5818 ft | 377 kts | 150° |
| 2026-05-01 14:28 | 52.04170 | 21.22776 | 5482 ft | 375 kts | 150° |
| 2026-05-01 14:28 | 52.01875 | 21.24787 | 5129 ft | 374 kts | 150° |
| 2026-05-01 14:29 | 51.99593 | 21.26776 | 4790 ft | 367 kts | 151° |
| 2026-05-01 14:29 | 51.97400 | 21.28670 | 4646 ft | 348 kts | 151° |
| 2026-05-01 14:30 | 51.91457 | 21.33605 | 4248 ft | 294 kts | 164° |
| 2026-05-01 14:30 | 51.89513 | 21.33648 | 4118 ft | 273 kts | 199° |
| 2026-05-01 14:30 | 51.88015 | 21.32075 | 3999 ft | 247 kts | 234° |
| 2026-05-01 14:31 | 51.86452 | 21.27355 | 4005 ft | 236 kts | 255° |
| 2026-05-01 14:31 | 51.86361 | 21.24775 | 4002 ft | 229 kts | 287° |
| 2026-05-01 14:31 | 51.87088 | 21.22568 | 3999 ft | 224 kts | 319° |
| 2026-05-01 14:31 | 51.88377 | 21.21134 | 4002 ft | 219 kts | 333° |
| 2026-05-01 14:32 | 51.89672 | 21.20031 | 3997 ft | 204 kts | 334° |
| 2026-05-01 14:32 | 51.90922 | 21.18972 | 4005 ft | 201 kts | 334° |
| 2026-05-01 14:32 | 51.92155 | 21.17914 | 4005 ft | 200 kts | 334° |
| 2026-05-01 14:32 | 51.93385 | 21.16853 | 4009 ft | 201 kts | 334° |
| 2026-05-01 14:33 | 51.94622 | 21.15786 | 4005 ft | 201 kts | 334° |
| 2026-05-01 14:33 | 51.95852 | 21.14723 | 4004 ft | 201 kts | 333° |
| 2026-05-01 14:33 | 51.97087 | 21.13655 | 4002 ft | 202 kts | 333° |
| 2026-05-01 14:33 | 51.98327 | 21.12582 | 4004 ft | 201 kts | 334° |
| 2026-05-01 14:34 | 51.99562 | 21.11513 | 3867 ft | 200 kts | 333° |
| 2026-05-01 14:34 | 52.00790 | 21.10448 | 3629 ft | 200 kts | 334° |
| 2026-05-01 14:34 | 52.02007 | 21.09393 | 3387 ft | 198 kts | 333° |
| 2026-05-01 14:34 | 52.03217 | 21.08345 | 3108 ft | 197 kts | 334° |
| 2026-05-01 14:35 | 52.04423 | 21.07298 | 2856 ft | 195 kts | 334° |
| 2026-05-01 14:35 | 52.05623 | 21.06256 | 2595 ft | 197 kts | 334° |
| 2026-05-01 14:35 | 52.06826 | 21.05210 | 2328 ft | 194 kts | 334° |
| 2026-05-01 14:35 | 52.07978 | 21.04207 | 2081 ft | 180 kts | 333° |
| 2026-05-01 14:36 | 52.09030 | 21.03290 | 1850 ft | 163 kts | 334° |
| 2026-05-01 14:36 | 52.09984 | 21.02460 | 1643 ft | 147 kts | 334° |
| 2026-05-01 14:36 | 52.10856 | 21.01700 | 1435 ft | 140 kts | 334° |
| 2026-05-01 14:36 | 52.11700 | 21.00962 | 1239 ft | 136 kts | 333° |
| 2026-05-01 14:37 | 52.12528 | 21.00236 | 1069 ft | 134 kts | 334° |
| 2026-05-01 14:37 | 52.13346 | 20.99513 | 914 ft | 134 kts | 334° |
| 2026-05-01 14:37 | 52.14176 | 20.98797 | 692 ft | 134 kts | 333° |
| 2026-05-01 14:37 | 52.14998 | 20.98087 | 484 ft | 136 kts | 332° |
| 2026-05-01 14:38 | 52.15825 | 20.97366 | 359 ft | 132 kts | 332° |
| 2026-05-01 14:38 | 52.16522 | 20.96757 | 337 ft | 92 kts | 332° |
| 2026-05-01 14:38 | 52.16823 | 20.96512 | 335 ft | 25 kts | 348° |
| 2026-05-01 14:38 | 52.16965 | 20.96511 | 334 ft | 17 kts | 2° |
| 2026-05-01 14:39 | 52.17076 | 20.96543 | 338 ft | 15 kts | 41° |
| 2026-05-01 14:39 | 52.17133 | 20.96695 | 338 ft | 17 kts | 63° |
| 2026-05-01 14:39 | 52.17198 | 20.96793 | 334 ft | 13 kts | 355° |
| 2026-05-01 14:39 | 52.17275 | 20.96736 | 336 ft | 10 kts | 332° |
| 2026-05-01 14:40 | 52.17310 | 20.96770 | 334 ft | 7 kts | 60° |
| 2026-05-01 14:40 | 52.17332 | 20.96837 | 335 ft | 5 kts | 62° |
| 2026-05-01 14:40 | 52.17336 | 20.96849 | 336 ft | 0 kts | 62° |